Promitheas — SYIJ — position and weather

sailwx.info

Track history (hours):
 
Tides and Currents Weather Stations Pressure Air Temp Water Temp Dewpoint Dewpoint Depression Visibility Wind Speed Wind Dir Waves Ship Positions

Promitheas

Last reported at 2016-Jan-26 13:28 UTC. Time now 2016-Feb-08 17:02 UTC.
Position N 70°22' E 031°48'.
Warning: this ship's position is 13 days out of date.

Length 249 m; draft 8.5 m.

Type: Tanker. MMSI: 240547000.

Date/timePositionNaut miles runAvg speedWind from/ knotsBaromVisibWave heightAir tempDewpointWater temp
2016-Jan-26 13:28N 70°22' E 031°48'1 0.9
2016-Jan-26 12:24N 70°21' E 031°47'  
2016-Jan-22 03:25N 58°46' E 004°38'1113.0
2016-Jan-22 02:33N 58°38' E 004°52'1313.1
2016-Jan-22 01:33N 58°29' E 005°10'1412.6
2016-Jan-22 00:29N 58°19' E 005°28'1313.4
2016-Jan-21 23:31N 58°10' E 005°47'1313.7
2016-Jan-21 22:32N 58°01' E 006°05'1413.9
2016-Jan-21 21:33N 57°52' E 006°25'1313.3
2016-Jan-21 20:33N 57°46' E 006°47'8913.8
2016-Jan-21 14:04N 57°52' E 009°35'713.7
2016-Jan-21 13:33N 57°52' E 009°48'1613.7
2016-Jan-21 12:24N 57°51' E 010°17'1113.3
2016-Jan-21 11:33N 57°51' E 010°38'1111.1
2016-Jan-21 10:33N 57°43' E 010°53'1211.7
2016-Jan-21 09:33N 57°33' E 010°42'0 0.2
2016-Jan-21 08:32N 57°33' E 010°42'0 0.0
2016-Jan-21 07:32N 57°33' E 010°42'0 0.0
2016-Jan-21 06:29N 57°33' E 010°42'0 0.1
2016-Jan-21 05:32N 57°33' E 010°42'0 0.0
2016-Jan-21 02:20N 57°33' E 010°42'0 0.1
2016-Jan-21 00:32N 57°33' E 010°42'0 0.1
2016-Jan-20 21:26N 57°33' E 010°41'1 0.8
2016-Jan-20 20:33N 57°32' E 010°42'5 5.4
2016-Jan-20 19:33N 57°32' E 010°52'1212.5
2016-Jan-20 18:34N 57°33' E 011°15'1110.5
2016-Jan-20 17:33N 57°33' E 011°34'0 0.1
2016-Jan-20 16:33N 57°33' E 011°34'0 0.0
2016-Jan-20 15:33N 57°33' E 011°34'0 0.0
2016-Jan-20 14:33N 57°33' E 011°34'0 0.0
2016-Jan-20 13:33N 57°33' E 011°34'0 0.0
2016-Jan-20 12:33N 57°33' E 011°34'0 0.0
2016-Jan-20 11:33N 57°33' E 011°34'0 0.0
2016-Jan-20 10:33N 57°33' E 011°34'0 0.0
2016-Jan-20 09:33N 57°33' E 011°34'0 0.0
2016-Jan-20 08:33N 57°33' E 011°34'0 0.0
2016-Jan-20 07:33N 57°33' E 011°34'0 0.1
2016-Jan-20 06:33N 57°33' E 011°34'2 1.8
2016-Jan-20 05:33N 57°33' E 011°31'1 0.7
2016-Jan-20 04:33N 57°33' E 011°30'8 7.9
2016-Jan-20 03:33N 57°38' E 011°18'1110.6
2016-Jan-20 02:30N 57°44' E 011°01'1212.7
2016-Jan-20 01:33N 57°48' E 010°40'34411.7
2016-Jan-18 20:13N 53°32' E 003°50'85 9.8
2016-Jan-18 11:33N 52°08' E 003°34'1110.9
2016-Jan-18 10:33N 52°04' E 003°50'1110.7
2016-Jan-18 09:34N 51°59' E 004°05'5 4.5
2016-Jan-18 08:26N 51°56' E 004°12'0 0.0
2016-Jan-18 07:32N 51°56' E 004°12'0 0.0
2016-Jan-18 06:32N 51°56' E 004°12'0 0.0
2016-Jan-18 05:32N 51°56' E 004°12'0 0.0
2016-Jan-18 04:32N 51°56' E 004°12'0 0.0
2016-Jan-18 03:32N 51°56' E 004°12'0 0.0
2016-Jan-18 02:32N 51°56' E 004°12'0 0.0
2016-Jan-18 01:32N 51°56' E 004°12'0 0.0
2016-Jan-18 00:32N 51°56' E 004°12'0 0.0
2016-Jan-17 23:32N 51°56' E 004°12'0 0.0
2016-Jan-17 22:32N 51°56' E 004°12'0 0.0
2016-Jan-17 21:32N 51°56' E 004°12'0 0.0
2016-Jan-17 20:05N 51°56' E 004°12'0 0.0
2016-Jan-17 19:32N 51°56' E 004°12'0 0.0
2016-Jan-17 18:29N 51°56' E 004°12'0 0.0
2016-Jan-17 17:32N 51°56' E 004°12'0 0.0
2016-Jan-17 16:32N 51°56' E 004°12'0 0.0
2016-Jan-17 15:32N 51°56' E 004°12'0 0.0
2016-Jan-17 14:32N 51°56' E 004°12'0 0.0
2016-Jan-17 13:32N 51°56' E 004°12'0 0.0
2016-Jan-17 12:32N 51°56' E 004°12'0 0.0
2016-Jan-17 11:32N 51°56' E 004°12'0 0.0
2016-Jan-17 10:32N 51°56' E 004°12'0 0.0
2016-Jan-17 09:32N 51°56' E 004°12'0 0.0
2016-Jan-17 08:32N 51°56' E 004°12'0 0.0
2016-Jan-17 07:32N 51°56' E 004°12'0 0.0
2016-Jan-17 06:34N 51°56' E 004°12'0 0.0
2016-Jan-17 05:33N 51°56' E 004°12'0 0.0
2016-Jan-17 04:34N 51°56' E 004°12'0 0.0
2016-Jan-17 03:33N 51°56' E 004°12'0 0.0
2016-Jan-17 02:33N 51°56' E 004°12'0 0.0
2016-Jan-17 01:34N 51°56' E 004°12'0 0.0
2016-Jan-17 00:33N 51°56' E 004°12'0 0.0
2016-Jan-16 23:33N 51°56' E 004°12'0 0.0
2016-Jan-16 22:33N 51°56' E 004°12'0 0.0
2016-Jan-16 21:33N 51°56' E 004°12'0 0.0
2016-Jan-16 20:33N 51°56' E 004°12'0 0.0
2016-Jan-16 19:33N 51°56' E 004°12'0 0.0
2016-Jan-16 18:34N 51°56' E 004°12'0 0.0
2016-Jan-16 17:33N 51°56' E 004°12'0 0.0
2016-Jan-16 16:33N 51°56' E 004°12'0 0.0
2016-Jan-16 15:33N 51°56' E 004°12'0 0.0
2016-Jan-16 14:33N 51°56' E 004°12'0 0.0
2016-Jan-16 13:33N 51°56' E 004°12'  
Track history (hours):
 
Tides and Currents Weather Stations Pressure Air Temp Water Temp Dewpoint Dewpoint Depression Visibility Wind Speed Wind Dir Waves Ship Positions

Promitheas

Last reported at 2016-Jan-26 13:28 UTC. Time now 2016-Feb-08 17:02 UTC.
Position N 70°22' E 031°48'.
Warning: this ship's position is 13 days out of date.

Length 249 m; draft 8.5 m.

Type: Tanker. MMSI: 240547000.

Date/timePositionNaut miles runAvg speedWind from/ knotsBaromVisibWave heightAir tempDewpointWater temp
2016-Jan-26 13:28N 70°22' E 031°48'1 0.9
2016-Jan-26 12:24N 70°21' E 031°47'  
2016-Jan-22 03:25N 58°46' E 004°38'1113.0
2016-Jan-22 02:33N 58°38' E 004°52'1313.1
2016-Jan-22 01:33N 58°29' E 005°10'1412.6
2016-Jan-22 00:29N 58°19' E 005°28'1313.4
2016-Jan-21 23:31N 58°10' E 005°47'1313.7
2016-Jan-21 22:32N 58°01' E 006°05'1413.9
2016-Jan-21 21:33N 57°52' E 006°25'1313.3
2016-Jan-21 20:33N 57°46' E 006°47'8913.8
2016-Jan-21 14:04N 57°52' E 009°35'713.7
2016-Jan-21 13:33N 57°52' E 009°48'1613.7
2016-Jan-21 12:24N 57°51' E 010°17'1113.3
2016-Jan-21 11:33N 57°51' E 010°38'1111.1
2016-Jan-21 10:33N 57°43' E 010°53'1211.7
2016-Jan-21 09:33N 57°33' E 010°42'0 0.2
2016-Jan-21 08:32N 57°33' E 010°42'0 0.0
2016-Jan-21 07:32N 57°33' E 010°42'0 0.0
2016-Jan-21 06:29N 57°33' E 010°42'0 0.1
2016-Jan-21 05:32N 57°33' E 010°42'0 0.0
2016-Jan-21 02:20N 57°33' E 010°42'0 0.1
2016-Jan-21 00:32N 57°33' E 010°42'0 0.1
2016-Jan-20 21:26N 57°33' E 010°41'1 0.8
2016-Jan-20 20:33N 57°32' E 010°42'5 5.4
2016-Jan-20 19:33N 57°32' E 010°52'1212.5
2016-Jan-20 18:34N 57°33' E 011°15'1110.5
2016-Jan-20 17:33N 57°33' E 011°34'0 0.1
2016-Jan-20 16:33N 57°33' E 011°34'0 0.0
2016-Jan-20 15:33N 57°33' E 011°34'0 0.0
2016-Jan-20 14:33N 57°33' E 011°34'0 0.0
2016-Jan-20 13:33N 57°33' E 011°34'0 0.0
2016-Jan-20 12:33N 57°33' E 011°34'0 0.0
2016-Jan-20 11:33N 57°33' E 011°34'0 0.0
2016-Jan-20 10:33N 57°33' E 011°34'0 0.0
2016-Jan-20 09:33N 57°33' E 011°34'0 0.0
2016-Jan-20 08:33N 57°33' E 011°34'0 0.0
2016-Jan-20 07:33N 57°33' E 011°34'0 0.1
2016-Jan-20 06:33N 57°33' E 011°34'2 1.8
2016-Jan-20 05:33N 57°33' E 011°31'1 0.7
2016-Jan-20 04:33N 57°33' E 011°30'8 7.9
2016-Jan-20 03:33N 57°38' E 011°18'1110.6
2016-Jan-20 02:30N 57°44' E 011°01'1212.7
2016-Jan-20 01:33N 57°48' E 010°40'34411.7
2016-Jan-18 20:13N 53°32' E 003°50'85 9.8
2016-Jan-18 11:33N 52°08' E 003°34'1110.9
2016-Jan-18 10:33N 52°04' E 003°50'1110.7
2016-Jan-18 09:34N 51°59' E 004°05'5 4.5
2016-Jan-18 08:26N 51°56' E 004°12'0 0.0
2016-Jan-18 07:32N 51°56' E 004°12'0 0.0
2016-Jan-18 06:32N 51°56' E 004°12'0 0.0
2016-Jan-18 05:32N 51°56' E 004°12'0 0.0
2016-Jan-18 04:32N 51°56' E 004°12'0 0.0
2016-Jan-18 03:32N 51°56' E 004°12'0 0.0
2016-Jan-18 02:32N 51°56' E 004°12'0 0.0
2016-Jan-18 01:32N 51°56' E 004°12'0 0.0
2016-Jan-18 00:32N 51°56' E 004°12'0 0.0
2016-Jan-17 23:32N 51°56' E 004°12'0 0.0
2016-Jan-17 22:32N 51°56' E 004°12'0 0.0
2016-Jan-17 21:32N 51°56' E 004°12'0 0.0
2016-Jan-17 20:05N 51°56' E 004°12'0 0.0
2016-Jan-17 19:32N 51°56' E 004°12'0 0.0
2016-Jan-17 18:29N 51°56' E 004°12'0 0.0
2016-Jan-17 17:32N 51°56' E 004°12'0 0.0
2016-Jan-17 16:32N 51°56' E 004°12'0 0.0
2016-Jan-17 15:32N 51°56' E 004°12'0 0.0
2016-Jan-17 14:32N 51°56' E 004°12'0 0.0
2016-Jan-17 13:32N 51°56' E 004°12'0 0.0
2016-Jan-17 12:32N 51°56' E 004°12'0 0.0
2016-Jan-17 11:32N 51°56' E 004°12'0 0.0
2016-Jan-17 10:32N 51°56' E 004°12'0 0.0
2016-Jan-17 09:32N 51°56' E 004°12'0 0.0
2016-Jan-17 08:32N 51°56' E 004°12'0 0.0
2016-Jan-17 07:32N 51°56' E 004°12'0 0.0
2016-Jan-17 06:34N 51°56' E 004°12'0 0.0
2016-Jan-17 05:33N 51°56' E 004°12'0 0.0
2016-Jan-17 04:34N 51°56' E 004°12'0 0.0
2016-Jan-17 03:33N 51°56' E 004°12'0 0.0
2016-Jan-17 02:33N 51°56' E 004°12'0 0.0
2016-Jan-17 01:34N 51°56' E 004°12'0 0.0
2016-Jan-17 00:33N 51°56' E 004°12'0 0.0
2016-Jan-16 23:33N 51°56' E 004°12'0 0.0
2016-Jan-16 22:33N 51°56' E 004°12'0 0.0
2016-Jan-16 21:33N 51°56' E 004°12'0 0.0
2016-Jan-16 20:33N 51°56' E 004°12'0 0.0
2016-Jan-16 19:33N 51°56' E 004°12'0 0.0
2016-Jan-16 18:34N 51°56' E 004°12'0 0.0
2016-Jan-16 17:33N 51°56' E 004°12'0 0.0
2016-Jan-16 16:33N 51°56' E 004°12'0 0.0
2016-Jan-16 15:33N 51°56' E 004°12'0 0.0
2016-Jan-16 14:33N 51°56' E 004°12'0 0.0
2016-Jan-16 13:33N 51°56' E 004°12'  

Dump ship's entire track history